createdAt,value
2019-04-28T00:00:31.467Z,97.40
2019-04-28T00:03:00.778Z,97.30
2019-04-28T00:05:30.910Z,97.40
2019-04-28T00:08:02.705Z,97.30
2019-04-28T00:10:32.023Z,97.40
2019-04-28T00:13:01.048Z,98.00
2019-04-28T00:15:30.810Z,98.10
2019-04-28T00:18:01.562Z,98.00
2019-04-28T00:20:33.073Z,98.00
2019-04-28T00:23:21.724Z,98.20
2019-04-28T00:26:06.920Z,98.30
2019-04-28T00:28:37.132Z,98.60
2019-04-28T00:31:05.818Z,98.50
2019-04-28T00:33:34.452Z,99.00
2019-04-28T00:36:03.210Z,99.30
2019-04-28T00:38:31.836Z,99.10
2019-04-28T00:41:02.277Z,99.10
2019-04-28T00:43:31.786Z,98.70
2019-04-28T00:46:01.034Z,98.60
2019-04-28T00:48:30.925Z,98.60
2019-04-28T00:51:01.803Z,98.90
2019-04-28T00:53:31.051Z,98.80
2019-04-28T00:56:01.751Z,99.20
2019-04-28T00:58:31.851Z,99.00
2019-04-28T01:01:08.250Z,99.00
2019-04-28T01:03:36.984Z,99.20
2019-04-28T01:06:05.650Z,99.00
2019-04-28T01:08:36.455Z,99.60
2019-04-28T01:11:05.115Z,99.30
2019-04-28T01:13:35.368Z,99.10
2019-04-28T01:16:12.081Z,98.90
2019-04-28T01:18:45.053Z,98.90
2019-04-28T01:21:13.770Z,99.00
2019-04-28T01:23:42.401Z,99.00
2019-04-28T01:26:11.119Z,99.10
2019-04-28T01:28:39.912Z,99.50
2019-04-28T01:31:10.252Z,99.40
2019-04-28T01:33:57.130Z,99.50
2019-04-28T01:36:25.695Z,99.10
2019-04-28T01:38:54.341Z,98.90
2019-04-28T01:41:22.930Z,98.90
2019-04-28T01:43:52.362Z,98.90
2019-04-28T01:46:21.119Z,99.40
2019-04-28T01:48:49.830Z,99.30
2019-04-28T01:51:19.046Z,99.20
2019-04-28T01:53:50.432Z,99.00
2019-04-28T01:56:20.455Z,99.20
2019-04-28T01:58:49.974Z,99.30
2019-04-28T02:01:20.413Z,99.40
2019-04-28T02:03:50.246Z,99.50
2019-04-28T02:06:19.856Z,99.50
2019-04-28T02:08:51.132Z,99.60
2019-04-28T02:11:19.827Z,99.70
2019-04-28T02:13:49.705Z,99.90
2019-04-28T02:16:19.456Z,99.90
2019-04-28T02:18:49.693Z,99.90
2019-04-28T02:21:19.997Z,99.90
2019-04-28T02:23:49.277Z,99.90
2019-04-28T02:26:19.588Z,99.90
2019-04-28T02:28:48.169Z,99.80
2019-04-28T02:31:16.750Z,99.60
2019-04-28T02:33:45.495Z,99.70
2019-04-28T02:36:14.094Z,99.70
2019-04-28T02:38:43.448Z,99.50
2019-04-28T02:41:12.180Z,99.40
2019-04-28T02:43:41.135Z,99.40
2019-04-28T02:46:11.536Z,99.90
2019-04-28T02:48:40.502Z,99.50
2019-04-28T02:51:13.767Z,99.80
2019-04-28T02:53:43.175Z,99.50
2019-04-28T02:56:11.904Z,98.90
2019-04-28T02:58:41.535Z,98.50
2019-04-28T03:01:21.438Z,98.50
2019-04-28T03:03:41.018Z,98.70
2019-04-28T03:06:10.890Z,98.40
2019-04-28T03:08:40.415Z,97.90
2019-04-28T03:11:10.699Z,97.60
2019-04-28T03:13:41.112Z,97.50
2019-04-28T03:16:11.341Z,97.20
2019-04-28T03:18:41.253Z,96.80
2019-04-28T03:21:11.466Z,96.40
2019-04-28T03:23:40.588Z,96.10
2019-04-28T03:26:27.374Z,95.80
2019-04-28T03:29:01.031Z,95.80
2019-04-28T03:32:13.653Z,95.60
2019-04-28T03:34:14.726Z,95.20
2019-04-28T03:36:43.432Z,95.00
2019-04-28T03:39:12.100Z,94.70
2019-04-28T03:41:40.850Z,94.50
2019-04-28T03:44:11.447Z,94.10
2019-04-28T03:46:44.234Z,94.30
2019-04-28T03:49:14.442Z,94.00
2019-04-28T03:51:43.011Z,93.80
2019-04-28T03:54:11.713Z,93.60
2019-04-28T03:56:41.298Z,93.20
2019-04-28T03:59:10.430Z,92.90
2019-04-28T04:01:55.564Z,92.80
2019-04-28T04:04:11.301Z,92.60
2019-04-28T04:06:40.866Z,92.30
2019-04-28T04:09:11.289Z,92.40
2019-04-28T04:11:41.614Z,92.00
2019-04-28T04:14:27.985Z,91.70
2019-04-28T04:17:00.094Z,91.50
2019-04-28T04:19:30.442Z,91.10
2019-04-28T04:22:00.385Z,90.80
2019-04-28T04:24:30.634Z,91.00
2019-04-28T04:27:00.870Z,90.90
2019-04-28T04:29:34.129Z,90.50
2019-04-28T04:32:12.635Z,90.60
2019-04-28T04:34:32.243Z,90.50
2019-04-28T04:37:01.023Z,90.30
2019-04-28T04:39:30.313Z,90.30
2019-04-28T04:42:00.606Z,90.20
2019-04-28T04:44:31.039Z,90.00
2019-04-28T04:47:00.965Z,89.80
2019-04-28T04:49:31.632Z,89.40
2019-04-28T04:52:00.498Z,88.70
2019-04-28T04:54:32.019Z,88.80
2019-04-28T04:57:01.293Z,88.30
2019-04-28T04:59:31.635Z,88.40
2019-04-28T05:02:25.439Z,87.70
2019-04-28T05:04:45.327Z,87.40
2019-04-28T05:07:14.087Z,87.00
2019-04-28T05:09:43.859Z,86.80
2019-04-28T05:12:12.516Z,86.00
2019-04-28T05:14:41.155Z,85.30
2019-04-28T05:17:10.406Z,84.80
2019-04-28T05:19:40.157Z,84.50
2019-04-28T05:22:10.183Z,84.50
2019-04-28T05:24:46.310Z,84.10
2019-04-28T05:27:13.466Z,84.20
2019-04-28T05:29:42.137Z,84.60
2019-04-28T05:32:10.920Z,85.00
2019-04-28T05:34:46.804Z,84.20
2019-04-28T05:37:12.130Z,84.30
2019-04-28T05:39:40.786Z,84.60
2019-04-28T05:42:11.279Z,85.10
2019-04-28T05:44:40.800Z,84.30
2019-04-28T05:47:09.975Z,84.90
2019-04-28T05:49:46.080Z,84.70
2019-04-28T05:52:32.782Z,84.20
2019-04-28T05:55:17.977Z,84.40
2019-04-28T05:57:53.068Z,84.10
2019-04-28T06:03:25.351Z,84.10
2019-04-28T06:05:56.830Z,84.00
2019-04-28T06:08:37.955Z,83.90
2019-04-28T06:11:24.641Z,83.10
2019-04-28T06:13:53.271Z,83.20
2019-04-28T06:16:22.108Z,82.70
2019-04-28T06:18:51.003Z,81.40
2019-04-28T06:21:19.699Z,82.10
2019-04-28T06:26:17.074Z,81.90
2019-04-28T06:28:45.831Z,81.10
2019-04-28T06:31:14.582Z,80.60
2019-04-28T06:33:44.573Z,81.40
2019-04-28T06:36:13.318Z,81.80
2019-04-28T06:38:42.066Z,81.10
2019-04-28T06:41:10.682Z,81.30
2019-04-28T06:43:40.340Z,80.10
2019-04-28T06:46:08.878Z,80.20
2019-04-28T06:48:39.392Z,79.80
2019-04-28T06:51:08.114Z,79.40
2019-04-28T06:53:36.845Z,79.10
2019-04-28T06:56:05.425Z,78.70
2019-04-28T06:58:33.998Z,78.50
2019-04-28T07:01:02.566Z,77.60
2019-04-28T07:03:31.194Z,76.30
2019-04-28T07:06:00.295Z,77.60
2019-04-28T07:08:28.921Z,76.80
2019-04-28T07:10:57.614Z,76.20
2019-04-28T07:13:26.629Z,76.20
2019-04-28T07:15:55.191Z,75.80
2019-04-28T07:18:23.949Z,74.50
2019-04-28T07:20:56.968Z,75.00
2019-04-28T07:23:25.543Z,73.80
2019-04-28T07:25:54.125Z,75.40
2019-04-28T07:28:23.145Z,73.60
2019-04-28T07:30:52.005Z,74.20
2019-04-28T07:33:20.709Z,74.00
2019-04-28T07:35:49.466Z,74.20
2019-04-28T07:38:17.994Z,73.50
2019-04-28T07:40:51.193Z,73.40
2019-04-28T07:43:16.898Z,72.70
2019-04-28T07:45:45.607Z,72.70
2019-04-28T07:48:15.714Z,72.30
2019-04-28T07:50:45.838Z,73.10
2019-04-28T07:53:16.112Z,71.50
2019-04-28T07:55:44.910Z,71.20
2019-04-28T07:58:13.466Z,70.70
2019-04-28T08:00:43.883Z,68.60
2019-04-28T08:03:12.583Z,68.70
2019-04-28T08:05:42.475Z,68.50
2019-04-28T08:08:11.009Z,69.00
2019-04-28T08:10:41.332Z,69.60
2019-04-28T08:13:10.119Z,69.00
2019-04-28T08:15:38.921Z,69.50
2019-04-28T08:18:08.457Z,68.50
2019-04-28T08:20:36.952Z,67.90
2019-04-28T08:23:05.683Z,68.00
2019-04-28T08:25:34.419Z,67.30
2019-04-28T08:28:04.593Z,66.90
2019-04-28T08:30:33.360Z,68.20
2019-04-28T08:33:12.924Z,67.00
2019-04-28T08:35:43.040Z,66.10
2019-04-28T08:38:11.728Z,64.40
2019-04-28T08:40:40.468Z,64.00
2019-04-28T08:43:10.167Z,63.40
2019-04-28T08:45:38.742Z,64.50
2019-04-28T08:48:07.438Z,63.70
2019-04-28T08:50:36.158Z,63.70
2019-04-28T08:53:04.934Z,63.40
2019-04-28T08:55:33.907Z,62.30
2019-04-28T08:58:02.665Z,61.70
2019-04-28T09:00:31.276Z,62.50
2019-04-28T09:02:59.983Z,62.60
2019-04-28T09:05:30.283Z,61.20
2019-04-28T09:07:59.069Z,60.50
2019-04-28T09:10:27.615Z,60.00
2019-04-28T09:12:56.339Z,60.00
2019-04-28T09:15:24.945Z,60.00
2019-04-28T09:17:53.515Z,59.60
2019-04-28T09:20:23.919Z,61.00
2019-04-28T09:22:52.524Z,61.10
2019-04-28T09:25:21.362Z,58.90
2019-04-28T09:27:50.014Z,58.80
2019-04-28T09:30:19.285Z,59.40
2019-04-28T09:32:49.446Z,58.30
2019-04-28T09:35:19.574Z,59.00
2019-04-28T09:37:48.152Z,58.70
2019-04-28T09:40:17.805Z,59.20
2019-04-28T09:42:48.118Z,58.10
2019-04-28T09:45:26.947Z,57.70
2019-04-28T09:47:55.537Z,57.30
2019-04-28T09:50:24.157Z,57.00
2019-04-28T09:52:52.851Z,57.20
2019-04-28T09:55:21.615Z,56.40
2019-04-28T09:57:50.234Z,55.60
2019-04-28T10:00:19.157Z,55.50
2019-04-28T10:02:48.373Z,56.00
2019-04-28T10:05:19.839Z,54.90
2019-04-28T10:07:48.599Z,55.70
2019-04-28T10:10:17.301Z,55.00
2019-04-28T10:12:46.028Z,54.70
2019-04-28T10:15:14.926Z,54.10
2019-04-28T10:17:43.655Z,53.90
2019-04-28T10:20:12.552Z,52.30
2019-04-28T10:22:41.226Z,53.70
2019-04-28T10:25:12.878Z,52.40
2019-04-28T10:27:44.459Z,51.80
2019-04-28T10:30:13.646Z,51.40
2019-04-28T10:32:44.990Z,52.20
2019-04-28T10:35:14.767Z,51.10
2019-04-28T10:37:45.818Z,51.40
2019-04-28T10:40:27.652Z,50.60
2019-04-28T10:42:55.543Z,50.70
2019-04-28T10:45:25.883Z,49.40
2019-04-28T10:47:54.471Z,49.80
2019-04-28T10:50:23.158Z,49.30
2019-04-28T10:52:51.853Z,48.60
2019-04-28T10:55:22.007Z,47.30
2019-04-28T10:57:50.673Z,46.20
2019-04-28T11:00:23.374Z,43.80
2019-04-28T11:02:51.937Z,41.90
2019-04-28T11:05:24.857Z,41.80
2019-04-28T11:07:54.183Z,40.30
2019-04-28T11:10:22.874Z,40.40
2019-04-28T11:12:51.614Z,39.80
2019-04-28T11:15:33.886Z,39.30
2019-04-28T11:18:03.342Z,39.00
2019-04-28T11:20:33.494Z,38.60
2019-04-28T11:23:02.158Z,38.00
2019-04-28T11:25:31.048Z,38.10
2019-04-28T11:27:59.798Z,38.40
2019-04-28T11:30:29.772Z,38.00
2019-04-28T11:33:12.319Z,36.60
2019-04-28T11:35:42.564Z,37.20
2019-04-28T11:38:11.117Z,36.80
2019-04-28T11:40:39.695Z,35.00
2019-04-28T11:43:10.571Z,33.70
2019-04-28T11:45:39.255Z,34.60
2019-04-28T11:48:07.809Z,33.90
2019-04-28T11:50:36.482Z,33.70
2019-04-28T11:53:05.114Z,33.90
2019-04-28T11:55:33.751Z,32.50
2019-04-28T11:58:02.519Z,33.50
2019-04-28T12:00:35.676Z,33.90
2019-04-28T12:03:04.398Z,32.90
2019-04-28T12:05:35.011Z,32.70
2019-04-28T12:08:03.511Z,32.00
2019-04-28T12:10:50.096Z,31.40
2019-04-28T12:13:38.157Z,30.70
2019-04-28T12:16:24.496Z,31.50
2019-04-28T12:18:54.738Z,32.40
2019-04-28T12:21:23.447Z,31.40
2019-04-28T12:23:52.091Z,32.10
2019-04-28T12:26:20.726Z,31.40
2019-04-28T12:28:53.520Z,30.90
2019-04-28T12:31:22.364Z,31.40
2019-04-28T12:33:50.909Z,31.20
2019-04-28T12:36:19.403Z,31.60
2019-04-28T12:38:50.672Z,31.10
2019-04-28T12:41:20.246Z,30.40
2019-04-28T12:43:48.959Z,30.30
2019-04-28T12:46:17.648Z,29.50
2019-04-28T12:48:46.321Z,30.10
2019-04-28T12:51:14.924Z,31.10
2019-04-28T12:53:43.658Z,32.10
2019-04-28T12:56:12.954Z,32.60
2019-04-28T12:58:41.465Z,31.40
2019-04-28T13:01:26.946Z,32.50
2019-04-28T13:04:13.592Z,31.70
2019-04-28T13:06:43.946Z,30.50
2019-04-28T13:09:12.634Z,30.80
2019-04-28T13:11:42.942Z,31.30
2019-04-28T13:14:11.579Z,33.00
2019-04-28T13:16:40.151Z,36.10
2019-04-28T13:19:08.768Z,37.40
2019-04-28T13:21:40.230Z,37.60
2019-04-28T13:24:08.843Z,37.60
2019-04-28T13:26:37.432Z,36.80
2019-04-28T13:29:08.976Z,35.90
2019-04-28T13:31:37.546Z,33.70
2019-04-28T13:34:07.855Z,34.00
2019-04-28T13:36:36.550Z,34.30
2019-04-28T13:39:11.073Z,35.00
2019-04-28T13:41:39.783Z,34.40
2019-04-28T13:44:10.150Z,34.90
2019-04-28T13:46:38.853Z,34.40
2019-04-28T13:49:09.116Z,33.90
2019-04-28T13:51:37.798Z,33.20
2019-04-28T13:54:09.528Z,32.20
2019-04-28T13:56:39.682Z,31.30
2019-04-28T13:59:09.918Z,31.90
2019-04-28T14:01:59.130Z,32.70
2019-04-28T14:04:31.796Z,33.00
2019-04-28T14:07:00.468Z,32.30
2019-04-28T14:09:29.116Z,31.70
2019-04-28T14:12:00.023Z,31.70
2019-04-28T14:14:27.986Z,31.60
2019-04-28T14:16:56.706Z,32.20
2019-04-28T14:19:25.396Z,31.80
2019-04-28T14:21:54.151Z,32.50
2019-04-28T14:24:22.712Z,32.40
2019-04-28T14:26:51.373Z,33.20
2019-04-28T14:29:19.929Z,33.10
2019-04-28T14:31:48.599Z,33.80
2019-04-28T14:34:17.190Z,33.40
2019-04-28T14:36:45.808Z,33.10
2019-04-28T14:39:15.064Z,33.20
2019-04-28T14:41:43.702Z,32.60
2019-04-28T14:44:12.398Z,32.60
2019-04-28T14:46:41.023Z,32.40
2019-04-28T14:49:09.741Z,32.40
2019-04-28T14:51:38.368Z,32.10
2019-04-28T14:54:07.026Z,31.60
2019-04-28T14:56:35.640Z,30.80
2019-04-28T14:59:04.500Z,30.70
2019-04-28T15:01:37.412Z,31.00
2019-04-28T15:04:06.710Z,31.50
2019-04-28T15:06:36.918Z,31.30
2019-04-28T15:09:09.698Z,32.60
2019-04-28T15:11:46.094Z,31.30
2019-04-28T15:14:14.797Z,31.40
2019-04-28T15:16:43.567Z,31.10
2019-04-28T15:19:12.307Z,30.50
2019-04-28T15:21:40.867Z,30.40
2019-04-28T15:24:11.916Z,30.10
2019-04-28T15:26:40.606Z,31.10
2019-04-28T15:29:09.250Z,30.80
2019-04-28T15:31:37.878Z,30.20
2019-04-28T15:34:06.591Z,29.90
2019-04-28T15:36:35.214Z,29.60
2019-04-28T15:39:07.294Z,29.00
2019-04-28T15:41:35.282Z,29.40
2019-04-28T15:44:03.945Z,28.50
2019-04-28T15:46:32.606Z,28.20
2019-04-28T15:49:01.315Z,28.10
2019-04-28T15:51:30.060Z,28.50
2019-04-28T15:53:58.816Z,28.00
2019-04-28T15:56:38.164Z,27.90
2019-04-28T15:59:07.090Z,29.40
2019-04-28T16:01:35.695Z,28.50
2019-04-28T16:04:04.520Z,28.50
2019-04-28T16:06:33.155Z,28.10
2019-04-28T16:09:01.852Z,28.70
2019-04-28T16:11:30.502Z,29.30
2019-04-28T16:13:59.155Z,29.20
2019-04-28T16:16:27.809Z,29.40
2019-04-28T16:18:56.477Z,29.00
2019-04-28T16:21:25.114Z,29.00
2019-04-28T16:23:54.301Z,28.70
2019-04-28T16:26:29.366Z,29.20
2019-04-28T16:29:01.278Z,28.40
2019-04-28T16:31:30.005Z,27.40
2019-04-28T16:33:59.398Z,28.20
2019-04-28T16:36:28.022Z,28.90
2019-04-28T16:38:56.641Z,28.60
2019-04-28T16:41:35.034Z,30.00
2019-04-28T16:44:15.058Z,31.40
2019-04-28T16:46:43.672Z,32.00
2019-04-28T16:49:12.250Z,32.20
2019-04-28T16:51:40.928Z,32.00
2019-04-28T16:54:09.529Z,32.90
2019-04-28T16:56:39.779Z,33.10
2019-04-28T16:59:10.077Z,33.30
2019-04-28T17:01:40.469Z,34.10
2019-04-28T17:04:09.053Z,34.90
2019-04-28T17:06:37.675Z,35.40
2019-04-28T17:09:07.827Z,35.40
2019-04-28T17:11:37.067Z,36.20
2019-04-28T17:14:08.829Z,36.40
2019-04-28T17:16:38.627Z,37.20
2019-04-28T17:19:10.173Z,36.70
2019-04-28T17:21:38.921Z,37.10
2019-04-28T17:24:07.897Z,37.70
2019-04-28T17:26:36.579Z,37.70
2019-04-28T17:29:05.390Z,38.30
2019-04-28T17:31:34.491Z,38.30
2019-04-28T17:34:03.189Z,38.60
2019-04-28T17:36:31.869Z,38.40
2019-04-28T17:39:01.451Z,39.40
2019-04-28T17:41:30.454Z,39.80
2019-04-28T17:43:59.348Z,40.30
2019-04-28T17:46:28.051Z,41.20
2019-04-28T17:49:01.010Z,41.40
2019-04-28T17:51:29.761Z,41.90
2019-04-28T17:53:58.439Z,43.30
2019-04-28T17:56:27.109Z,43.40
2019-04-28T17:58:55.738Z,44.10
2019-04-28T18:01:29.022Z,44.80
2019-04-28T18:03:59.343Z,45.30
2019-04-28T18:06:29.949Z,45.80
2019-04-28T18:08:58.518Z,46.00
2019-04-28T18:11:27.242Z,46.20
2019-04-28T18:13:55.950Z,46.30
2019-04-28T18:16:26.330Z,46.80
2019-04-28T18:18:56.590Z,47.10
2019-04-28T18:21:25.088Z,47.50
2019-04-28T18:23:53.762Z,47.60
2019-04-28T18:26:22.397Z,48.60
2019-04-28T18:28:51.155Z,49.20
2019-04-28T18:31:29.003Z,49.50
2019-04-28T18:34:08.233Z,49.90
2019-04-28T18:36:54.648Z,50.20
2019-04-28T18:39:25.044Z,50.80
2019-04-28T18:42:10.191Z,51.00
2019-04-28T18:44:39.071Z,51.40
2019-04-28T18:47:07.731Z,51.50
2019-04-28T18:49:36.479Z,51.60
2019-04-28T18:52:06.174Z,51.90
2019-04-28T18:54:34.818Z,52.20
2019-04-28T18:57:03.497Z,52.10
2019-04-28T18:59:32.228Z,52.50
2019-04-28T19:02:18.722Z,52.60
2019-04-28T19:04:47.709Z,52.80
2019-04-28T19:07:18.026Z,53.20
2019-04-28T19:10:00.555Z,53.50
2019-04-28T19:12:43.170Z,53.70
2019-04-28T19:15:22.632Z,53.80
2019-04-28T19:17:52.903Z,54.20
2019-04-28T19:20:21.481Z,54.60
2019-04-28T19:22:50.495Z,54.60
2019-04-28T19:25:19.092Z,54.90
2019-04-28T19:27:52.046Z,55.10
2019-04-28T19:30:21.287Z,55.20
2019-04-28T19:32:50.546Z,54.90
2019-04-28T19:35:19.265Z,54.90
2019-04-28T19:37:52.331Z,55.00
2019-04-28T19:40:25.679Z,55.10
2019-04-28T19:42:55.438Z,55.20
2019-04-28T19:45:24.094Z,55.40
2019-04-28T19:47:55.298Z,55.50
2019-04-28T19:50:26.702Z,55.70
2019-04-28T19:52:56.345Z,56.00
2019-04-28T19:55:30.281Z,56.30
2019-04-28T19:58:12.290Z,56.40
2019-04-28T20:00:42.752Z,56.50
2019-04-28T20:03:14.474Z,56.80
2019-04-28T20:05:43.034Z,57.00
2019-04-28T20:08:12.188Z,57.30
2019-04-28T20:10:40.776Z,57.70
2019-04-28T20:13:09.414Z,58.10
2019-04-28T20:15:38.069Z,58.40
2019-04-28T20:18:06.821Z,59.30
2019-04-28T20:20:35.543Z,58.80
2019-04-28T20:23:06.225Z,58.80
2019-04-28T20:25:34.604Z,59.20
2019-04-28T20:28:03.669Z,59.60
2019-04-28T20:30:33.063Z,60.20
2019-04-28T20:33:07.476Z,60.40
2019-04-28T20:35:33.753Z,60.80
2019-04-28T20:38:09.778Z,61.30
2019-04-28T20:40:43.180Z,61.40
2019-04-28T20:43:29.593Z,62.30
2019-04-28T20:45:58.374Z,63.40
2019-04-28T20:48:27.005Z,63.90
2019-04-28T20:50:55.725Z,64.30
2019-04-28T20:53:24.448Z,64.70
2019-04-28T20:55:56.458Z,65.30
2019-04-28T20:58:25.162Z,66.00
2019-04-28T21:00:53.992Z,66.60
2019-04-28T21:03:23.405Z,67.10
2019-04-28T21:05:52.160Z,67.80
2019-04-28T21:08:20.801Z,67.80
2019-04-28T21:10:50.735Z,68.00
2019-04-28T21:13:19.235Z,67.90
2019-04-28T21:15:49.553Z,68.60
2019-04-28T21:18:18.219Z,68.80
2019-04-28T21:20:46.846Z,68.90
2019-04-28T21:23:15.607Z,69.10
2019-04-28T21:25:44.279Z,69.40
2019-04-28T21:28:13.051Z,69.40
2019-04-28T21:30:42.407Z,69.60
2019-04-28T21:33:10.995Z,69.70
2019-04-28T21:35:41.274Z,69.80
2019-04-28T21:38:10.102Z,69.80
2019-04-28T21:40:40.466Z,70.00
2019-04-28T21:43:19.762Z,70.30
2019-04-28T21:46:05.266Z,70.60
2019-04-28T21:48:50.351Z,70.50
2019-04-28T21:51:20.530Z,70.90
2019-04-28T21:53:49.230Z,70.80
2019-04-28T21:56:17.935Z,71.00
2019-04-28T21:58:46.717Z,71.80
2019-04-28T22:01:21.159Z,71.40
2019-04-28T22:03:50.404Z,71.50
2019-04-28T22:06:20.679Z,71.60
2019-04-28T22:08:50.875Z,71.30
2019-04-28T22:11:20.251Z,71.20
2019-04-28T22:13:51.633Z,70.90
2019-04-28T22:16:20.497Z,70.10
2019-04-28T22:18:49.414Z,69.30
2019-04-28T22:21:17.953Z,68.60
2019-04-28T22:23:57.824Z,68.40
2019-04-28T22:26:43.451Z,68.70
2019-04-28T22:29:14.673Z,68.60
2019-04-28T22:31:45.799Z,68.90
2019-04-28T22:34:15.012Z,69.60
2019-04-28T22:36:46.539Z,69.60
2019-04-28T22:39:15.386Z,69.50
2019-04-28T22:41:44.219Z,69.50
2019-04-28T22:44:14.517Z,69.50
2019-04-28T22:46:43.287Z,70.20
2019-04-28T22:49:12.048Z,70.60
2019-04-28T22:51:40.785Z,71.50
2019-04-28T22:57:01.665Z,72.80
2019-04-28T22:59:32.001Z,73.20
2019-04-28T23:02:05.352Z,73.40
2019-04-28T23:04:38.649Z,73.80
2019-04-28T23:07:07.461Z,74.30
2019-04-28T23:09:36.114Z,74.30
2019-04-28T23:12:05.277Z,74.70
2019-04-28T23:14:34.105Z,75.50
2019-04-28T23:17:03.469Z,75.10
2019-04-28T23:19:36.054Z,75.40
2019-04-28T23:22:06.533Z,75.80
2019-04-28T23:24:36.344Z,75.80
2019-04-28T23:27:07.556Z,76.30
2019-04-28T23:29:37.430Z,76.40
2019-04-28T23:32:06.446Z,76.70
2019-04-28T23:34:36.382Z,77.10
2019-04-28T23:37:05.226Z,77.20
2019-04-28T23:39:33.908Z,77.60
2019-04-28T23:42:15.224Z,78.00
2019-04-28T23:44:43.864Z,78.40
2019-04-28T23:47:12.509Z,78.30
2019-04-28T23:49:43.344Z,78.20
2019-04-28T23:52:16.367Z,77.80
2019-04-28T23:54:52.396Z,77.60
2019-04-28T23:57:21.652Z,77.30
2019-04-28T23:59:50.290Z,76.80
